Time;durP1;ratioP1;P1;durP2;ratioP2;P2;SDS_P1;SDS_P2;PMS_P1;PMS_P2;Temp;Humidity;BMP_temperature;BMP_pressure;BME280_temperature;BME280_humidity;BME280_pressure;Samples;Min_cycle;Max_cycle;Signal;HPM_P1;HPM_P2
2022/02/04 00:04:15;;;;;;;44.10;17.77;;;;;;;5.11;100.00;100520.84;5046426;28;20509;-77
2022/02/04 00:24:46;;;;;;;61.17;24.17;;;;;;;5.01;100.00;100549.88;5045069;28;20063;-77
2022/02/04 00:27:18;;;;;;;61.00;24.57;;;;;;;5.04;100.00;100546.97;5045012;28;20040;-77
2022/02/04 00:29:57;;;;;;;57.55;23.73;;;;;;;5.05;100.00;100549.47;5028552;28;20254;-76
2022/02/04 00:32:25;;;;;;;65.75;23.25;;;;;;;5.02;100.00;100548.91;5061908;28;20039;-77
2022/02/04 00:34:58;;;;;;;65.25;24.67;;;;;;;5.02;100.00;100556.84;5028216;28;20032;-77
2022/02/04 00:37:44;;;;;;;53.90;24.08;;;;;;;5.05;100.00;100562.69;5045129;28;20033;-76
2022/02/04 00:40:16;;;;;;;61.28;23.65;;;;;;;5.06;100.00;100561.75;5045268;28;20383;-77
2022/02/04 00:42:41;;;;;;;60.95;23.65;;;;;;;5.02;100.00;100554.22;5027005;28;20105;-77
2022/02/04 00:45:21;;;;;;;57.23;25.90;;;;;;;5.02;100.00;100556.84;5044835;28;20033;-77
2022/02/04 00:47:53;;;;;;;61.05;22.77;;;;;;;5.07;100.00;100566.06;5062331;28;20037;-77
2022/02/04 00:50:30;;;;;;;58.60;23.17;;;;;;;5.08;100.00;100562.47;5045634;28;20086;-76
2022/02/04 00:53:13;;;;;;;58.70;23.08;;;;;;;5.07;100.00;100557.28;5062496;28;20033;-77
2022/02/04 00:55:46;;;;;;;57.50;22.73;;;;;;;5.04;100.00;100552.28;5045022;28;20041;-77
2022/02/04 01:13:10;;;;;;;69.88;24.95;;;;;;;5.01;100.00;100548.09;5050174;28;20510;-77
2022/02/04 01:28:22;;;;;;;61.92;22.65;;;;;;;4.95;100.00;100537.19;5048492;28;20040;-77
2022/02/04 01:30:48;;;;;;;63.28;24.67;;;;;;;5.04;100.00;100545.16;5031379;28;20037;-77
2022/02/04 01:33:14;;;;;;;71.20;26.90;;;;;;;5.07;100.00;100541.41;5065190;28;20048;-77
2022/02/04 01:35:39;;;;;;;68.20;23.95;;;;;;;5.04;100.00;100541.69;5048218;28;20135;-77
2022/02/04 01:38:05;;;;;;;64.47;23.23;;;;;;;5.03;100.00;100540.84;5048860;28;20017;-77
2022/02/04 01:40:30;;;;;;;63.10;24.97;;;;;;;5.07;100.00;100554.66;5065294;28;20720;-77
2022/02/04 01:42:56;;;;;;;72.68;25.67;;;;;;;5.02;100.00;100548.91;5049186;28;20123;-77
2022/02/04 01:45:21;;;;;;;64.95;25.65;;;;;;;5.08;100.00;100551.03;5031887;28;20498;-77
2022/02/04 01:47:56;;;;;;;72.40;26.93;;;;;;;5.04;100.00;100545.16;5032615;28;20491;-77
2022/02/04 01:50:23;;;;;;;62.22;24.55;;;;;;;5.09;100.00;100558.00;5050269;28;20628;-77
2022/02/04 01:52:49;;;;;;;67.20;27.38;;;;;;;5.10;100.00;100550.91;5049152;28;20461;-77
2022/02/04 01:55:15;;;;;;;68.75;26.08;;;;;;;5.08;100.00;100543.09;5031944;28;20060;-77
2022/02/04 01:57:41;;;;;;;72.38;28.35;;;;;;;5.10;100.00;100535.84;5032533;28;20143;-77
2022/02/04 02:00:07;;;;;;;76.85;28.88;;;;;;;5.06;100.00;100535.28;5049137;28;20120;-77
2022/02/04 02:02:33;;;;;;;75.15;29.30;;;;;;;5.15;100.00;100538.97;5066044;28;20489;-78
2022/02/04 02:04:58;;;;;;;68.33;28.90;;;;;;;5.07;100.00;100529.00;5048248;28;20112;-78
2022/02/04 02:07:26;;;;;;;79.50;30.90;;;;;;;5.05;100.00;100530.94;5050029;28;20389;-76
2022/02/04 02:12:18;;;;;;;84.50;29.33;;;;;;;5.10;100.00;100532.38;5048613;28;20033;-77
2022/02/04 02:14:45;;;;;;;77.47;29.92;;;;;;;5.11;100.00;100526.13;5031426;28;20028;-77
2022/02/04 02:44:37;;;;;;;70.20;29.27;;;;;;;5.25;100.00;100504.59;5038277;28;20537;-76
2022/02/04 02:52:18;;;;;;;79.32;29.70;;;;;;;5.16;100.00;100468.34;5047353;28;20155;-77
2022/02/04 03:00:30;;;;;;;73.53;30.33;;;;;;;5.12;100.00;100465.09;5045691;28;20033;-77
2022/02/04 03:03:01;;;;;;;62.70;25.83;;;;;;;5.09;100.00;100452.16;5045760;28;20048;-76
2022/02/04 03:05:26;;;;;;;75.78;28.65;;;;;;;5.08;100.00;100448.69;5045291;28;20131;-77
2022/02/04 03:07:51;;;;;;;64.93;26.60;;;;;;;5.08;100.00;100443.38;5045742;28;20112;-76
2022/02/04 03:10:17;;;;;;;65.70;27.73;;;;;;;5.12;100.00;100433.34;5046634;28;20560;-76
2022/02/04 03:12:44;;;;;;;77.43;28.80;;;;;;;5.13;100.00;100434.19;5028825;28;20068;-76
2022/02/04 03:15:10;;;;;;;58.30;24.67;;;;;;;5.05;100.00;100417.16;5045175;28;20029;-76
2022/02/04 03:17:36;;;;;;;65.50;28.85;;;;;;;5.06;100.00;100410.09;5062210;28;20036;-76
2022/02/04 03:20:07;;;;;;;68.60;27.05;;;;;;;5.09;100.00;100401.88;5045398;28;20123;-76
2022/02/04 03:22:33;;;;;;;67.00;27.27;;;;;;;5.15;100.00;100405.78;5045171;28;20056;-76
2022/02/04 03:25:02;;;;;;;68.55;25.85;;;;;;;5.13;100.00;100386.53;5028625;28;20513;-77
2022/02/04 03:27:36;;;;;;;60.17;26.13;;;;;;;5.12;100.00;100383.06;5045354;28;20103;-76
2022/02/04 03:30:15;;;;;;;63.22;26.38;;;;;;;5.12;100.00;100371.66;5045509;28;20041;-76
2022/02/04 03:32:49;;;;;;;67.13;27.75;;;;;;;5.17;100.00;100369.44;5045094;28;20032;-76
2022/02/04 03:35:20;;;;;;;65.57;26.83;;;;;;;5.10;100.00;100355.06;5045002;28;20063;-76
2022/02/04 03:37:45;;;;;;;67.63;26.83;;;;;;;5.05;100.00;100348.38;5045109;28;20037;-76
2022/02/04 03:40:11;;;;;;;72.93;29.52;;;;;;;5.10;100.00;100339.19;5028776;28;20031;-76
2022/02/04 03:42:37;;;;;;;67.55;27.92;;;;;;;5.11;100.00;100340.88;5045127;28;20037;-76
2022/02/04 03:45:02;;;;;;;68.63;28.33;;;;;;;5.15;100.00;100343.13;5044773;28;20033;-76
2022/02/04 03:47:28;;;;;;;65.85;28.60;;;;;;;5.12;100.00;100330.16;5044899;28;20788;-76
2022/02/04 03:49:53;;;;;;;64.73;26.90;;;;;;;5.06;100.00;100334.19;5061593;28;20617;-76
2022/02/04 03:52:19;;;;;;;67.73;27.43;;;;;;;5.08;100.00;100339.34;5028428;28;20569;-76
2022/02/04 03:54:44;;;;;;;72.43;29.93;;;;;;;5.12;100.00;100343.38;5044723;28;20056;-76
2022/02/04 03:57:09;;;;;;;69.20;28.97;;;;;;;5.07;100.00;100333.19;5046056;28;20949;-76
2022/02/04 03:59:35;;;;;;;67.87;27.00;;;;;;;5.10;100.00;100336.56;5045067;28;20036;-76
2022/02/04 04:02:00;;;;;;;64.20;29.10;;;;;;;5.03;100.00;100333.59;5045113;28;20341;-75
2022/02/04 04:04:30;;;;;;;69.90;27.53;;;;;;;5.11;100.00;100338.25;5061401;28;20040;-77
2022/02/04 04:06:56;;;;;;;64.82;27.33;;;;;;;5.16;100.00;100341.31;5044884;28;20036;-76
2022/02/04 04:09:21;;;;;;;66.10;26.93;;;;;;;5.13;100.00;100331.84;5045026;28;20040;-76
2022/02/04 04:11:48;;;;;;;74.90;28.23;;;;;;;5.14;100.00;100338.78;5045872;28;20043;-76
2022/02/04 04:14:14;;;;;;;81.00;30.48;;;;;;;5.13;100.00;100336.25;5085695;22;20064;-78
2022/02/04 04:16:41;;;;;;;;;;;;;;;5.18;100.00;100334.06;5062961;28;20113;-77
2022/02/04 04:19:07;;;;;;;67.50;27.40;;;;;;;5.17;100.00;100319.16;5066224;28;20277;-78
2022/02/04 04:21:32;;;;;;;65.50;30.27;;;;;;;5.12;100.00;100321.38;5074689;28;20070;-78
2022/02/04 04:23:58;;;;;;;72.07;29.60;;;;;;;5.08;100.00;100308.44;5080434;28;20032;-77
2022/02/04 04:26:23;;;;;;;69.32;29.33;;;;;;;5.14;100.00;100311.50;5082693;28;20028;-77
2022/02/04 04:28:49;;;;;;;66.78;29.08;;;;;;;5.10;100.00;100307.44;5064220;28;20124;-77
2022/02/04 04:31:15;;;;;;;71.18;28.65;;;;;;;5.12;100.00;100300.19;5078353;28;20412;-78
2022/02/04 04:33:41;;;;;;;78.78;29.45;;;;;;;5.08;100.00;100294.38;5064218;28;20028;-77
2022/02/04 04:36:07;;;;;;;66.32;29.42;;;;;;;5.12;100.00;100301.03;5057133;28;20033;-77
2022/02/04 04:41:19;;;;;;;64.57;30.02;;;;;;;5.13;100.00;100297.44;5081596;28;20044;-77
2022/02/04 04:44:23;;;;;;;70.18;29.27;;;;;;;5.10;100.00;100288.91;5076964;28;20059;-77
2022/02/04 05:25:44;;;;;;;71.50;30.42;;;;;;;5.18;100.00;100291.72;5082539;28;20035;-77
2022/02/04 05:30:43;;;;;;;62.00;28.08;;;;;;;5.17;100.00;100213.28;5060320;28;20128;-77
2022/02/04 05:33:08;;;;;;;74.00;29.20;;;;;;;5.12;100.00;100208.41;5067114;28;20123;-77
2022/02/04 05:35:34;;;;;;;73.85;31.05;;;;;;;5.14;100.00;100205.63;5088456;28;20058;-78
2022/02/04 05:37:59;;;;;;;68.05;29.85;;;;;;;5.15;100.00;100204.66;5071760;28;20036;-78
2022/02/04 05:40:29;;;;;;;76.93;32.15;;;;;;;5.20;100.00;100207.72;5088572;28;20023;-77
2022/02/04 05:43:00;;;;;;;67.38;30.45;;;;;;;5.20;100.00;100215.69;5071804;28;20566;-78
2022/02/04 05:45:29;;;;;;;72.93;33.13;;;;;;;5.13;100.00;100199.53;5071177;28;20031;-78
2022/02/04 05:47:59;;;;;;;70.05;30.58;;;;;;;5.11;100.00;100195.34;5088158;28;20020;-77
2022/02/04 05:53:36;;;;;;;68.43;31.10;;;;;;;5.14;100.00;100192.41;5006706;28;20057;-78
2022/02/04 06:03:46;;;;;;;73.53;32.63;;;;;;;5.11;100.00;100182.13;5087862;28;20118;-77
2022/02/04 06:13:53;;;;;;;63.03;29.30;;;;;;;5.10;100.00;100165.38;5083440;28;20293;-77
2022/02/04 06:24:27;;;;;;;68.97;30.92;;;;;;;5.14;100.00;100161.47;5086963;28;20408;-78
2022/02/04 06:26:55;;;;;;;60.83;30.97;;;;;;;5.24;100.00;100166.75;5081507;28;20039;-77
2022/02/04 06:29:21;;;;;;;65.72;29.95;;;;;;;5.17;100.00;100165.66;5060174;28;20480;-78
2022/02/04 06:31:47;;;;;;;71.85;33.40;;;;;;;5.02;100.00;100137.00;5069609;28;20109;-77
2022/02/04 06:34:13;;;;;;;66.45;31.27;;;;;;;5.20;100.00;100160.09;5060442;28;20501;-78
2022/02/04 06:36:38;;;;;;;68.68;28.10;;;;;;;5.17;100.00;100145.31;5085341;28;20515;-77
2022/02/04 06:39:04;;;;;;;70.63;31.67;;;;;;;5.15;100.00;100147.28;5079725;28;20029;-78
2022/02/04 06:41:30;;;;;;;68.20;30.13;;;;;;;5.19;100.00;100145.19;5085944;28;20036;-77
2022/02/04 06:43:55;;;;;;;67.97;31.70;;;;;;;5.12;100.00;100142.25;5080282;28;20397;-78
2022/02/04 06:46:21;;;;;;;69.57;32.30;;;;;;;5.18;100.00;100147.00;5067661;28;20122;-78
2022/02/04 06:48:49;;;;;;;71.70;32.67;;;;;;;5.22;100.00;100143.09;5068520;28;20075;-77
2022/02/04 06:51:15;;;;;;;77.20;34.40;;;;;;;5.19;100.00;100145.19;5069135;28;20012;-78
2022/02/04 06:53:40;;;;;;;71.93;33.28;;;;;;;5.21;100.00;100137.94;5068161;28;20036;-79
2022/02/04 06:56:06;;;;;;;74.82;33.60;;;;;;;5.19;100.00;100138.06;5085585;28;20063;-79
2022/02/04 06:58:31;;;;;;;76.78;33.78;;;;;;;5.21;100.00;100135.28;5068295;28;20024;-78
2022/02/04 07:00:57;;;;;;;69.23;31.97;;;;;;;5.20;100.00;100142.41;5085546;28;20051;-78
2022/02/04 07:03:22;;;;;;;78.23;34.30;;;;;;;5.16;100.00;100134.88;5069857;28;20312;-78
2022/02/04 07:05:56;;;;;;;75.00;31.20;;;;;;;5.14;100.00;100129.72;5086722;28;20100;-78
2022/02/04 07:08:34;;;;;;;70.80;31.98;;;;;;;5.19;100.00;100143.34;5087151;28;20135;-77
2022/02/04 07:21:37;;;;;;;75.88;35.00;;;;;;;5.12;100.00;100131.69;5086625;28;20059;-77
2022/02/04 07:24:02;;;;;;;87.63;37.33;;;;;;;5.11;100.00;100123.91;5068920;28;20067;-77
2022/02/04 07:26:32;;;;;;;75.97;32.75;;;;;;;5.11;100.00;100126.53;5069349;28;20047;-78
2022/02/04 07:28:58;;;;;;;79.65;32.60;;;;;;;5.22;100.00;100129.00;5069674;28;20032;-78
2022/02/04 07:31:26;;;;;;;74.43;32.67;;;;;;;5.20;100.00;100131.00;5086064;28;20024;-79
2022/02/04 07:34:04;;;;;;;74.82;33.58;;;;;;;5.12;100.00;100109.69;5087054;28;20046;-78
2022/02/04 07:41:42;;;;;;;78.85;32.63;;;;;;;5.18;100.00;100115.25;5087461;28;20039;-78
2022/02/04 07:44:08;;;;;;;75.50;31.92;;;;;;;5.22;100.00;100110.47;5069163;28;20031;-77
2022/02/04 07:46:34;;;;;;;78.60;33.72;;;;;;;5.25;100.00;100111.03;5086258;28;20497;-77
2022/02/04 07:48:59;;;;;;;72.90;34.33;;;;;;;5.21;100.00;100093.78;5068805;28;20055;-78
2022/02/04 07:51:25;;;;;;;82.18;34.15;;;;;;;5.25;100.00;100100.44;5086536;28;20751;-79
2022/02/04 07:53:50;;;;;;;74.00;31.70;;;;;;;5.23;100.00;100096.28;5088251;28;20078;-79
2022/02/04 07:56:20;;;;;;;79.20;36.97;;;;;;;5.28;100.00;100089.56;5070032;28;20269;-78
2022/02/04 07:58:57;;;;;;;67.40;31.20;;;;;;;5.29;100.00;100090.41;5070798;28;20481;-78
2022/02/04 08:01:29;;;;;;;72.93;33.97;;;;;;;5.31;100.00;100084.97;5068859;28;20032;-78
2022/02/04 08:04:06;;;;;;;79.07;34.53;;;;;;;5.32;100.00;100084.84;5081007;28;20037;-79
2022/02/04 08:06:36;;;;;;;76.05;31.45;;;;;;;5.32;100.00;100084.00;5067114;28;20132;-78
2022/02/04 08:09:20;;;;;;;77.05;33.55;;;;;;;5.29;100.00;100072.72;5067103;28;20033;-78
2022/02/04 08:14:51;;;;;;;73.15;32.72;;;;;;;5.36;100.00;100065.03;5068762;28;20036;-78
2022/02/04 08:17:56;;;;;;;68.80;32.10;;;;;;;5.33;100.00;100075.91;5068166;28;20115;-78
2022/02/04 08:20:38;;;;;;;66.47;30.35;;;;;;;5.40;100.00;100073.50;5068600;28;20850;-78
2022/02/04 08:46:52;;;;;;;71.63;31.88;;;;;;;5.59;100.00;100072.59;5068383;28;20512;-78
2022/02/04 08:52:53;;;;;;;66.53;32.35;;;;;;;5.57;100.00;100056.88;5088141;28;20500;-78
2022/02/04 08:57:18;;;;;;;71.03;32.37;;;;;;;5.58;100.00;100052.41;5076009;28;20016;-78
2022/02/04 08:59:58;;;;;;;77.25;33.63;;;;;;;5.52;100.00;100047.69;5056660;28;20127;-77
2022/02/04 09:02:35;;;;;;;69.05;31.67;;;;;;;5.59;100.00;100056.69;5049770;28;20047;-77
2022/02/04 09:05:04;;;;;;;68.75;31.98;;;;;;;5.68;100.00;100058.47;5083062;28;20033;-78
2022/02/04 09:07:43;;;;;;;63.72;30.27;;;;;;;5.65;100.00;100049.00;5081398;28;20891;-78
2022/02/04 09:10:11;;;;;;;70.30;33.50;;;;;;;5.68;100.00;100045.22;5072391;28;20510;-77
2022/02/04 09:20:37;;;;;;;70.20;32.03;;;;;;;5.75;100.00;100014.50;5083663;28;20035;-78
2022/02/04 09:23:02;;;;;;;63.78;29.73;;;;;;;5.80;100.00;100019.38;5075749;28;20036;-78
2022/02/04 09:25:28;;;;;;;66.68;29.92;;;;;;;5.80;100.00;100006.94;5076193;28;20035;-78
2022/02/04 09:27:54;;;;;;;65.47;30.83;;;;;;;5.76;100.00;99997.66;5093263;28;20032;-78
2022/02/04 09:30:21;;;;;;;62.95;32.88;;;;;;;5.83;100.00;100004.03;5076693;28;20027;-79
2022/02/04 09:32:47;;;;;;;64.90;30.67;;;;;;;5.76;100.00;99997.66;5093433;28;20039;-78
2022/02/04 09:35:15;;;;;;;71.80;33.17;;;;;;;5.79;100.00;99996.53;5093427;28;20024;-79
2022/02/04 09:37:42;;;;;;;65.22;31.23;;;;;;;5.84;100.00;99988.94;5077699;28;20023;-79
2022/02/04 09:40:09;;;;;;;62.70;28.45;;;;;;;5.92;100.00;99996.97;5077576;28;20028;-78
2022/02/04 09:42:34;;;;;;;60.42;29.42;;;;;;;5.97;100.00;99983.28;5094198;28;20040;-79
2022/02/04 09:45:00;;;;;;;67.40;30.27;;;;;;;5.99;100.00;99987.47;5077493;28;20042;-78
2022/02/04 09:47:33;;;;;;;60.47;29.88;;;;;;;5.92;100.00;99971.34;5076531;28;20048;-79
2022/02/04 09:50:01;;;;;;;64.13;30.65;;;;;;;6.04;100.00;99974.63;5093069;28;20036;-78
2022/02/04 10:14:11;;;;;;;54.07;30.10;;;;;;;6.21;100.00;99927.03;5071785;28;20060;-78
2022/02/04 10:17:04;;;;;;;56.33;27.35;;;;;;;6.09;100.00;99914.03;5056220;28;20664;-78
2022/02/04 10:19:28;;;;;;;53.88;26.23;;;;;;;6.15;100.00;99923.16;5072147;28;20047;-79
2022/02/04 10:22:01;;;;;;;52.83;27.67;;;;;;;6.12;100.00;99915.53;5067397;28;20100;-79
2022/02/04 10:24:28;;;;;;;58.70;28.10;;;;;;;6.16;100.00;99916.91;5076341;28;20035;-80
2022/02/04 10:27:13;;;;;;;;;;;;;;;6.12;100.00;99902.28;5093806;28;20032;-78
2022/02/04 10:29:42;;;;;;;51.85;26.25;;;;;;;6.21;100.00;99908.50;5075346;28;20406;-80
2022/02/04 10:32:07;;;;;;;52.55;27.50;;;;;;;6.21;100.00;99900.53;5074729;28;20028;-79
2022/02/04 10:34:35;;;;;;;51.75;25.48;;;;;;;6.27;100.00;99911.31;5092181;28;20103;-78
2022/02/04 10:37:04;;;;;;;54.38;26.98;;;;;;;6.24;100.00;99887.78;5072951;28;20048;-78
2022/02/04 10:42:19;;;;;;;53.15;27.50;;;;;;;6.14;100.00;99884.41;5089834;28;20517;-78
2022/02/04 10:47:32;;;;;;;55.30;25.92;;;;;;;6.23;100.00;99888.78;5089501;28;20036;-78
2022/02/04 10:50:09;;;;;;;49.90;24.67;;;;;;;6.15;100.00;99872.81;5057306;28;20036;-78
2022/02/04 10:52:57;;;;;;;48.88;25.17;;;;;;;6.31;100.00;99885.34;5052778;28;20044;-78
2022/02/04 10:58:41;;;;;;;44.38;22.45;;;;;;;6.32;100.00;99839.28;5017260;28;20105;-79
2022/02/04 11:01:17;;;;;;;44.72;23.73;;;;;;;6.43;100.00;99849.63;5088829;28;20112;-78
2022/02/04 11:03:52;;;;;;;48.22;24.25;;;;;;;6.47;100.00;99839.56;5062049;28;20028;-79
2022/02/04 11:36:06;;;;;;;33.13;17.27;;;;;;;6.62;100.00;99769.00;5093454;28;20085;-80
2022/02/04 11:47:54;;;;;;;36.72;19.13;;;;;;;6.71;100.00;99749.44;5091771;28;20039;-80
2022/02/04 11:55:00;;;;;;;32.05;18.60;;;;;;;6.84;100.00;99724.31;5092735;28;20047;-81
2022/02/04 11:57:30;;;;;;;32.10;18.60;;;;;;;6.87;100.00;99721.31;5077911;28;20031;-80
2022/02/04 11:59:58;;;;;;;29.38;18.15;;;;;;;6.86;100.00;99716.97;5081023;28;20308;-80
2022/02/04 12:02:27;;;;;;;33.88;17.83;;;;;;;6.84;100.00;99717.16;5097420;28;20058;-81
2022/02/04 12:05:07;;;;;;;30.20;18.42;;;;;;;6.78;100.00;99693.94;5097266;28;20042;-81
2022/02/04 12:07:33;;;;;;;32.35;16.42;;;;;;;6.82;100.00;99692.63;5079780;28;20038;-81
2022/02/04 12:10:16;;;;;;;29.33;16.90;;;;;;;6.84;100.00;99687.97;5095898;28;20028;-81
2022/02/04 12:13:02;;;;;;;28.30;16.98;;;;;;;6.76;100.00;99686.13;5078966;28;20040;-81
2022/02/04 12:15:27;;;;;;;;;;;;;;;6.89;100.00;99675.03;5094707;28;20531;-81
2022/02/04 12:18:00;;;;;;;28.27;16.67;;;;;;;6.84;100.00;99658.78;5095824;28;19911;-81
2022/02/04 12:20:44;;;;;;;28.02;16.65;;;;;;;6.73;100.00;99657.28;5077323;28;20043;-81
2022/02/04 12:23:10;;;;;;;32.40;17.38;;;;;;;6.73;100.00;99654.63;5095235;28;20042;-80
2022/02/04 12:25:58;;;;;;;26.48;16.50;;;;;;;6.71;100.00;99630.09;5077372;28;20052;-80
2022/02/04 12:28:43;;;;;;;27.60;15.90;;;;;;;6.79;100.00;99639.91;5078268;28;20136;-81
2022/02/04 12:31:12;;;;;;;21.63;12.30;;;;;;;6.81;100.00;99626.44;5077031;28;20040;-81
2022/02/04 12:33:43;;;;;;;25.65;15.25;;;;;;;6.79;100.00;99623.13;5076872;28;20095;-81
2022/02/04 12:36:35;;;;;;;29.55;16.00;;;;;;;6.79;100.00;99623.97;5092892;28;20128;-80
2022/02/04 12:39:07;;;;;;;26.83;15.05;;;;;;;6.78;100.00;99601.09;5093966;28;20032;-80
2022/02/04 12:41:35;;;;;;;28.48;16.75;;;;;;;6.80;100.00;99609.72;5074465;28;20181;-81
2022/02/04 12:44:04;;;;;;;31.33;16.92;;;;;;;6.78;100.00;99598.44;5092432;28;20063;-80
2022/02/04 12:46:31;;;;;;;23.98;14.65;;;;;;;6.75;100.00;99588.97;5075856;28;20024;-81
2022/02/04 12:49:01;;;;;;;21.73;13.77;;;;;;;6.87;100.00;99600.09;5074604;28;20040;-82
2022/02/04 12:51:32;;;;;;;22.60;14.45;;;;;;;6.88;100.00;99595.59;5073708;28;20039;-81
2022/02/04 12:53:58;;;;;;;25.55;14.10;;;;;;;6.86;100.00;99574.56;5072448;28;20032;-80
2022/02/04 12:56:39;;;;;;;22.45;12.60;;;;;;;6.87;100.00;99578.03;5075721;28;20031;-81
2022/02/04 12:59:40;;;;;;;21.60;13.02;;;;;;;6.84;100.00;99565.13;5076841;28;20025;-79
2022/02/04 13:10:07;;;;;;;25.27;13.30;;;;;;;6.82;100.00;99553.84;5094815;28;20028;-82
2022/02/04 13:12:51;;;;;;;21.45;12.45;;;;;;;6.86;100.00;99539.22;5078707;28;20051;-81
2022/02/04 13:15:16;;;;;;;21.08;13.05;;;;;;;6.84;100.00;99525.31;5079149;28;20036;-80
2022/02/04 13:17:42;;;;;;;20.92;11.63;;;;;;;6.87;100.00;99524.97;5077036;28;20043;-81
2022/02/04 13:20:08;;;;;;;22.37;12.93;;;;;;;6.82;100.00;99522.00;5094096;28;20028;-81
2022/02/04 13:22:37;;;;;;;22.05;12.48;;;;;;;6.79;100.00;99522.31;5073371;28;20678;-81
2022/02/04 13:25:11;;;;;;;21.15;12.40;;;;;;;6.91;100.00;99526.31;5090495;28;20032;-82
2022/02/04 13:27:37;;;;;;;20.20;11.77;;;;;;;6.84;100.00;99504.09;5090135;28;20032;-81
2022/02/04 13:30:25;;;;;;;17.75;11.82;;;;;;;6.83;100.00;99502.44;5090458;28;20024;-80
2022/02/04 13:32:50;;;;;;;22.30;11.70;;;;;;;6.93;100.00;99503.06;5093164;28;20036;-80
2022/02/04 13:35:29;;;;;;;17.40;10.98;;;;;;;6.95;100.00;99493.97;5075851;28;20028;-82
2022/02/04 13:38:00;;;;;;;17.13;10.75;;;;;;;6.96;100.00;99497.44;5070853;28;20036;-78
2022/02/04 13:41:10;;;;;;;19.60;11.63;;;;;;;6.92;100.00;99496.09;5075954;28;20044;-81
2022/02/04 13:49:20;;;;;;;17.25;11.43;;;;;;;6.93;100.00;99485.34;5093102;28;20040;-82
2022/02/04 13:52:02;;;;;;;18.35;11.15;;;;;;;6.86;100.00;99464.94;5075554;28;20101;-79
2022/02/04 13:57:10;;;;;;;17.38;10.68;;;;;;;6.84;100.00;99482.88;5092687;28;20032;-82
2022/02/04 13:59:45;;;;;;;16.30;9.70;;;;;;;6.82;100.00;99474.25;5092215;28;20052;-82
2022/02/04 14:02:17;;;;;;;14.85;9.70;;;;;;;6.76;100.00;99460.66;5091810;28;20085;-82
2022/02/04 14:05:00;;;;;;;18.13;9.73;;;;;;;6.81;100.00;99473.41;5092403;28;20058;-81
2022/02/04 14:07:34;;;;;;;17.23;9.35;;;;;;;6.82;100.00;99468.94;5072888;28;20134;-80
2022/02/04 14:10:07;;;;;;;17.52;9.70;;;;;;;6.81;100.00;99464.63;5091198;28;20032;-79
2022/02/04 14:12:33;;;;;;;19.17;10.57;;;;;;;6.75;100.00;99456.34;5090817;28;20075;-82
2022/02/04 14:15:02;;;;;;;15.43;10.10;;;;;;;6.75;100.00;99459.00;5073278;28;20077;-81
2022/02/04 14:17:28;;;;;;;16.00;9.25;;;;;;;6.78;100.00;99457.00;5056061;28;20043;-81
2022/02/04 14:19:54;;;;;;;12.23;8.45;;;;;;;6.72;100.00;99442.63;5089895;28;20035;-81
2022/02/04 14:22:20;;;;;;;14.82;9.02;;;;;;;6.76;100.00;99452.69;5072990;28;20078;-80
2022/02/04 14:24:45;;;;;;;15.05;9.80;;;;;;;6.83;100.00;99452.84;5085084;28;20026;-80
2022/02/04 14:27:11;;;;;;;13.97;9.63;;;;;;;6.76;100.00;99439.41;5072937;28;20042;-80
2022/02/04 14:29:51;;;;;;;16.40;8.43;;;;;;;6.80;100.00;99445.22;5063205;28;20040;-80
2022/02/04 14:32:23;;;;;;;12.18;7.22;;;;;;;6.81;100.00;99440.75;5056918;28;20493;-81
2022/02/04 14:37:44;;;;;;;13.17;7.13;;;;;;;6.82;100.00;99431.81;5072891;28;20036;-81
2022/02/04 14:54:15;;;;;;;;;;;;;;;6.86;100.00;99364.13;5063173;28;20044;-82
2022/02/04 15:02:05;;;;;;;11.75;6.03;;;;;;;6.83;100.00;99330.00;5111384;27;20031;-79
2022/02/04 15:07:03;;;;;;;9.20;5.15;;;;;;;6.80;99.82;99315.25;5078074;28;20038;-80
2022/02/04 15:09:30;;;;;;;8.43;5.45;;;;;;;6.83;99.90;99319.38;5073792;28;20482;-82
2022/02/04 15:11:55;;;;;;;9.30;5.07;;;;;;;6.87;99.55;99320.69;5057344;28;20040;-79
2022/02/04 15:14:21;;;;;;;7.57;5.63;;;;;;;6.85;99.26;99302.28;5055470;28;20581;-79
2022/02/04 15:16:46;;;;;;;8.90;5.32;;;;;;;6.87;99.13;99310.91;5091664;28;20028;-81
2022/02/04 15:19:12;;;;;;;10.23;5.57;;;;;;;6.84;99.08;99300.66;5055719;28;20082;-81
2022/02/04 15:21:41;;;;;;;12.63;4.67;;;;;;;6.85;99.22;99289.00;5073100;28;20304;-81
2022/02/04 15:24:09;;;;;;;8.70;4.55;;;;;;;6.86;99.00;99276.56;5056195;28;20278;-81
2022/02/04 15:26:35;;;;;;;8.13;5.32;;;;;;;6.83;98.85;99284.88;5074321;28;20028;-79
2022/02/04 15:29:04;;;;;;;5.93;4.63;;;;;;;6.79;98.84;99275.63;5058403;28;20028;-80
2022/02/04 15:33:57;;;;;;;;;;;;;;;6.91;98.13;99266.28;5075483;28;20267;-81
2022/02/04 15:36:26;;;;;;;6.20;4.15;;;;;;;6.88;97.86;99263.97;5058555;28;19975;-81
2022/02/04 15:38:52;;;;;;;8.23;4.53;;;;;;;6.88;97.56;99245.38;5075177;28;20039;-81
2022/02/04 15:41:20;;;;;;;8.65;4.18;;;;;;;6.87;97.23;99251.72;5087396;28;20031;-81
2022/02/04 15:43:50;;;;;;;7.38;4.35;;;;;;;6.90;97.09;99240.75;5076611;28;20115;-80
2022/02/04 15:54:13;;;;;;;7.63;5.67;;;;;;;6.81;97.53;99236.47;5093730;28;20015;-82
2022/02/04 15:57:15;;;;;;;7.95;4.80;;;;;;;6.74;98.09;99241.66;5097465;28;20088;-82
2022/02/04 16:02:28;;;;;;;7.60;4.57;;;;;;;6.72;98.98;99235.72;5095977;28;20034;-82
2022/02/04 16:04:55;;;;;;;7.65;4.30;;;;;;;6.64;99.24;99235.75;5061793;28;20049;-83
2022/02/04 16:07:25;;;;;;;8.52;4.32;;;;;;;6.65;99.56;99237.41;5082467;28;20036;-82
2022/02/04 16:10:01;;;;;;;7.75;4.57;;;;;;;6.64;99.67;99243.72;5081085;28;20079;-81
2022/02/04 16:13:13;;;;;;;6.63;4.15;;;;;;;6.61;100.00;99238.75;5083861;28;20489;-83
2022/02/04 16:15:32;;;;;;;8.75;4.50;;;;;;;6.64;100.00;99249.84;5076432;28;20050;-80
2022/02/04 16:18:01;;;;;;;8.18;4.35;;;;;;;6.62;100.00;99240.41;5088745;22;20042;-81
2022/02/04 16:20:50;;;;;;;4.75;4.22;;;;;;;6.55;100.00;99235.81;5099460;28;20395;-83
2022/02/04 16:23:24;;;;;;;7.85;4.97;;;;;;;6.52;100.00;99243.28;5104871;28;20028;-83
2022/02/04 16:28:38;;;;;;;57.53;25.48;;;;;;;6.44;100.00;99230.03;5093097;28;20039;-82
2022/02/04 16:31:06;;;;;;;96.60;45.03;;;;;;;6.49;100.00;99239.16;5085770;28;20024;-81
2022/02/04 16:33:31;;;;;;;10.93;6.93;;;;;;;6.43;100.00;99244.31;5072161;28;20111;-82
2022/02/04 16:36:03;;;;;;;10.88;5.65;;;;;;;6.41;100.00;99239.16;5069746;28;20020;-82
2022/02/04 16:38:29;;;;;;;27.48;9.77;;;;;;;6.44;100.00;99225.59;5074481;28;20982;-82
2022/02/04 16:40:56;;;;;;;8.45;5.70;;;;;;;6.40;100.00;99237.53;5096119;28;20799;-81
2022/02/04 16:43:23;;;;;;;9.02;7.85;;;;;;;6.39;100.00;99230.59;5096114;28;20378;-81
2022/02/04 16:45:50;;;;;;;10.35;5.50;;;;;;;6.43;100.00;99226.56;5079655;28;20029;-81
2022/02/04 16:48:16;;;;;;;8.85;6.32;;;;;;;6.38;100.00;99236.06;5091575;28;20035;-80
2022/02/04 16:50:44;;;;;;;10.00;7.07;;;;;;;6.39;100.00;99229.75;5075586;28;20032;-82
2022/02/04 16:53:10;;;;;;;16.25;6.90;;;;;;;6.41;100.00;99225.09;5075238;28;20032;-82
2022/02/04 16:55:35;;;;;;;11.95;7.38;;;;;;;6.37;100.00;99223.78;5082106;28;20035;-81
2022/02/04 16:58:00;;;;;;;9.70;6.67;;;;;;;6.34;100.00;99239.06;5094378;28;20043;-81
2022/02/04 17:00:26;;;;;;;11.77;6.60;;;;;;;6.29;100.00;99254.63;5081468;28;20035;-82
2022/02/04 17:02:56;;;;;;;8.95;6.05;;;;;;;6.28;100.00;99287.44;5072022;28;20020;-81
2022/02/04 17:05:24;;;;;;;8.02;4.35;;;;;;;6.03;100.00;99338.84;5068400;28;20035;-80
2022/02/04 17:07:55;;;;;;;1.77;1.30;;;;;;;5.12;100.00;99315.91;5098697;28;20639;-77
2022/02/04 17:10:32;;;;;;;1.23;1.05;;;;;;;4.49;100.00;99314.56;5074707;28;20466;-80
2022/02/04 17:13:01;;;;;;;3.95;1.52;;;;;;;4.38;100.00;99326.25;5072347;28;20040;-78
2022/02/04 17:15:32;;;;;;;1.67;1.30;;;;;;;4.30;100.00;99355.25;5076087;28;20020;-81
2022/02/04 17:18:00;;;;;;;4.63;1.73;;;;;;;4.25;100.00;99376.03;5094505;28;20070;-81